Latest Weather Observations for Melbourne Airport

IDV60801

Issued at 6:22 am EST Wednesday 22 September 2021 (issued every 10 minutes, with the page automatically refreshed every 10 minutes)

About weather observations | Map of weather stations | Latest weather observations for VIC | Other Formats
Station Details ID: 086282 Name: MELBOURNE AIRPORT Lat: -37.67 Lon: 144.83 Height: 113.4 m
Data from the previous 72 hours. | See also: Recent months at Melbourne Airport
Date/Time
EST
Temp
°C
App
Temp
°C
Dew
Point
°C
Rel
Hum
%
Delta-T
°C
Wind Press
QNH
hPa
Press
MSL
hPa
Rain since
9am
mm
Dir  Spd
km/h
Gust
km/h
Spd
kts
Gust
kts
22/06:14am 9.4 6.3 8.9 97 0.2 SW 15 19 8 10 1026.0 1026.1 0.2
22/06:00am 9.5 6.4 8.7 95 0.4 WSW 15 22 8 12 1025.8 1025.9 0.2
22/05:51am 9.5 6.7 8.7 95 0.4 WSW 13 19 7 10 1025.8 1025.9 0.2
22/05:30am 9.4 7.0 8.8 96 0.3 WSW 11 15 6 8 1025.6 1025.7 0.2
22/05:25am 9.4 7.4 8.8 96 0.3 WSW 9 15 5 8 1025.6 1025.7 0.2
22/05:08am 9.4 7.0 8.8 96 0.3 WSW 11 15 6 8 1025.3 1025.4 0.2
22/05:00am 9.4 7.0 8.8 96 0.3 WSW 11 15 6 8 1025.3 1025.4 0.2
22/04:56am 9.4 6.7 8.8 96 0.3 SW 13 19 7 10 1025.3 1025.4 0.2
22/04:37am 9.6 5.7 8.7 94 0.4 SW 19 26 10 14 1025.4 1025.5 0.2
22/04:30am 9.7 6.1 8.5 92 0.6 WSW 17 26 9 14 1025.5 1025.6 0.2
22/04:00am 9.8 7.3 8.4 91 0.7 WSW 11 15 6 8 1025.4 1025.5 0.2
22/03:30am 9.7 6.5 8.5 92 0.6 WSW 15 20 8 11 1025.6 1025.7 0.2
22/03:25am 9.8 7.0 8.4 91 0.7 WSW 13 20 7 11 1025.6 1025.7 0.2
22/03:00am 9.9 7.0 8.3 90 0.8 WSW 13 17 7 9 1025.6 1025.7 0.2
22/02:49am 9.9 5.9 8.3 90 0.8 WSW 19 24 10 13 1025.7 1025.8 0.2
22/02:30am 10.0 6.3 8.1 88 0.9 W 17 24 9 13 1025.8 1025.9 0.2
22/02:00am 9.9 6.2 8.0 88 0.9 W 17 20 9 11 1026.1 1026.2 0.2
22/01:30am 9.9 6.2 8.0 88 0.9 WSW 17 20 9 11 1026.2 1026.3 0.2
22/01:00am 10.1 6.4 7.9 86 1.1 W 17 22 9 12 1026.3 1026.4 0.2
22/12:30am 10.3 6.0 7.9 85 1.2 W 20 28 11 15 1026.6 1026.7 0.2
22/12:00am 10.4 6.3 8.0 85 1.2 W 19 26 10 14 1026.7 1026.8 0.2
 
Date/Time
EST
Temp
°C
App
Temp
°C
Dew
Point
°C
Rel
Hum
%
Delta-T
°C
Wind Press
QNH
hPa
Press
MSL
hPa
Rain since
9am
mm
Dir  Spd
km/h
Gust
km/h
Spd
kts
Gust
kts
21/11:30pm 10.4 6.3 8.0 85 1.2 W 19 26 10 14 1026.8 1026.9 0.2
21/11:00pm 10.1 6.8 8.0 87 1.0 W 15 20 8 11 1027.2 1027.2 0.2
21/10:30pm 9.9 6.6 8.0 88 0.9 W 15 19 8 10 1027.3 1027.3 0.2
21/10:00pm 9.9 7.0 8.0 88 0.9 W 13 17 7 9 1027.4 1027.4 0.2
21/09:30pm 9.6 6.6 7.9 89 0.8 WNW 13 17 7 9 1027.5 1027.5 0.2
21/09:00pm 9.2 6.9 7.6 90 0.8 W 9 11 5 6 1027.5 1027.5 0.2
21/08:30pm 9.5 5.6 7.3 86 1.0 WNW 17 20 9 11 1027.7 1027.7 0.0
21/08:18pm 9.7 7.7 7.0 83 1.3 W 7 11 4 6 1027.6 1027.6 0.0
21/08:00pm 10.0 6.0 6.5 79 1.6 WSW 17 24 9 13 1027.8 1027.8 0.0
21/07:30pm 10.3 7.3 5.9 74 2.0 W 11 13 6 7 1027.7 1027.7 0.0
21/07:00pm 10.3 7.2 5.7 73 2.1 WSW 11 13 6 7 1027.4 1027.4 0.0
21/06:30pm 10.5 5.9 5.5 71 2.3 WSW 19 26 10 14 1027.2 1027.2 0.0
21/06:00pm 10.8 7.5 4.5 65 2.8 SW 11 17 6 9 1027.1 1027.1 0.0
21/05:30pm 11.0 6.5 4.0 62 3.1 SW 17 24 9 13 1026.4 1026.5 0.0
21/05:00pm 11.1 6.2 4.3 63 3.0 WSW 19 28 10 15 1026.2 1026.3 0.0
21/04:30pm 11.6 8.1 3.6 58 3.6 S 11 15 6 8 1026.2 1026.3 0.0
21/04:00pm 11.3 7.0 3.3 58 3.5 SSW 15 20 8 11 1026.3 1026.4 0.0
21/03:30pm 11.5 7.0 4.0 60 3.4 SSW 17 26 9 14 1026.3 1026.4 0.0
21/03:00pm 11.4 6.2 3.4 58 3.5 S 20 30 11 16 1026.2 1026.3 0.0
21/02:30pm 12.5 6.5 3.5 54 4.0 SW 24 37 13 20 1026.2 1026.3 0.0
21/02:00pm 12.4 5.6 3.1 53 4.1 SSW 28 39 15 21 1026.3 1026.4 0.0
21/01:30pm 11.6 4.9 3.6 58 3.6 SSW 28 33 15 18 1026.2 1026.3 0.0
21/01:00pm 11.5 4.6 2.8 55 3.8 SSW 28 37 15 20 1026.1 1026.2 0.0
21/12:30pm 11.1 4.1 3.9 61 3.2 SW 30 43 16 23 1026.1 1026.2 0.0
21/12:00pm 11.2 4.3 2.5 55 3.7 SSW 28 37 15 20 1025.8 1025.9 0.0
21/11:30am 10.6 3.5 3.4 61 3.2 SSW 30 39 16 21 1025.7 1025.8 0.0
21/11:00am 10.5 5.6 5.1 69 2.5 S 20 30 11 16 1025.7 1025.8 0.0
21/10:30am 10.1 3.2 4.7 69 2.4 SSW 30 41 16 22 1025.5 1025.6 0.0
21/10:00am 9.5 3.0 4.5 71 2.2 SW 28 37 15 20 1025.4 1025.5 0.0
21/09:30am 9.3 2.4 4.7 73 2.1 SW 30 37 16 20 1025.2 1025.3 0.0
21/09:00am 9.1 3.4 5.1 76 1.8 SW 24 33 13 18 1025.2 1025.3 6.4
21/08:30am 6.8 1.4 4.5 85 1.0 WSW 22 28 12 15 1024.7 1024.8 6.4
21/08:00am 6.6 0.9 4.9 89 0.7 WSW 24 30 13 16 1024.1 1024.2 6.2
21/07:30am 6.2 2.5 4.7 90 0.7 SW 13 19 7 10 1023.7 1023.8 6.2
21/07:00am 6.0 1.0 4.5 90 0.6 WSW 20 28 11 15 1023.3 1023.4 6.2
21/06:30am 5.8 0.3 4.1 89 0.7 SW 22 30 12 16 1022.9 1023.0 6.2
21/06:00am 5.8 -0.1 4.1 89 0.7 WSW 24 32 13 17 1022.5 1022.6 6.0
21/05:30am 5.6 0.7 4.2 91 0.6 WSW 19 26 10 14 1021.8 1021.9 5.0
21/05:00am 5.4 1.6 4.1 91 0.6 SW 13 17 7 9 1021.3 1021.4 4.6
21/04:52am 5.4 1.3 4.2 92 0.5 SW 15 24 8 13 1021.3 1021.4 4.6
21/04:43am 5.5 0.6 4.0 90 0.6 WSW 19 26 10 14 1021.2 1021.3 4.2
21/04:30am 5.5 0.3 3.8 89 0.7 W 20 26 11 14 1020.8 1020.8 3.6
21/04:00am 5.5 -1.5 4.0 90 0.6 W 30 43 16 23 1020.3 1020.3 3.6
21/03:30am 5.5 -1.2 3.7 88 0.8 WSW 28 33 15 18 1020.0 1020.0 3.2
21/03:00am 5.4 -0.5 3.9 90 0.6 WSW 24 33 13 18 1019.8 1019.8 3.2
21/02:30am 5.3 -1.4 3.8 90 0.6 WSW 28 39 15 21 1019.6 1019.6 2.8
21/02:00am 5.1 -0.1 3.8 91 0.5 WSW 20 26 11 14 1019.5 1019.5 2.6
21/01:30am 5.3 -1.1 3.3 87 0.8 W 26 35 14 19 1019.3 1019.3 1.8
21/01:00am 5.0 -1.0 3.3 89 0.7 W 24 30 13 16 1019.1 1019.1 1.8
21/12:30am 5.3 -2.3 3.0 85 1.0 WSW 32 44 17 24 1019.1 1019.1 1.6
21/12:00am 5.3 -1.7 2.0 79 1.3 W 28 33 15 18 1018.5 1018.5 1.2
 
Date/Time
EST
Temp
°C
App
Temp
°C
Dew
Point
°C
Rel
Hum
%
Delta-T
°C
Wind Press
QNH
hPa
Press
MSL
hPa
Rain since
9am
mm
Dir  Spd
km/h
Gust
km/h
Spd
kts
Gust
kts
20/11:30pm 5.3 -1.3 2.1 80 1.3 W 26 35 14 19 1018.1 1018.1 1.2
20/11:00pm 5.2 -1.8 1.9 79 1.3 W 28 35 15 19 1017.8 1017.9 1.2
20/10:30pm 5.0 -1.6 2.0 81 1.2 W 26 32 14 17 1017.4 1017.5 1.2
20/10:00pm 5.3 -2.1 2.1 80 1.3 W 30 35 16 19 1017.3 1017.4 1.2
20/09:30pm 5.2 -1.7 2.4 82 1.1 W 28 35 15 19 1017.1 1017.2 1.2
20/09:00pm 5.2 -1.7 2.4 82 1.1 W 28 35 15 19 1016.7 1016.8 1.2
20/08:30pm 5.3 -1.2 2.7 83 1.1 WSW 26 35 14 19 1016.3 1016.4 1.2
20/08:00pm 5.2 -1.3 2.6 83 1.1 WSW 26 33 14 18 1016.1 1016.2 1.2
20/07:30pm 5.2 -1.3 2.4 82 1.1 W 26 35 14 19 1015.7 1015.8 1.2
20/07:00pm 5.4 -1.5 2.8 83 1.1 W 28 37 15 20 1015.0 1015.1 1.2
20/06:30pm 5.7 -1.9 2.9 82 1.2 W 32 41 17 22 1014.4 1014.5 1.2
20/06:00pm 6.3 -1.0 2.6 77 1.5 W 30 41 16 22 1013.9 1014.0 1.2
20/05:30pm 7.1 0.3 3.0 75 1.7 W 28 37 15 20 1013.5 1013.5 1.2
20/05:00pm 7.0 0.3 3.6 79 1.5 W 28 37 15 20 1013.1 1013.1 1.2
20/04:42pm 7.1 0.2 4.8 85 1.0 WSW 30 48 16 26 1012.9 1012.9 1.2
20/04:30pm 6.1 -3.0 3.8 85 1.0 WSW 41 54 22 29 1013.0 1013.0 1.2
20/04:24pm 7.9 -0.2 3.4 73 1.9 W 35 54 19 29 1012.7 1012.7 0.8
20/04:00pm 8.3 1.2 3.8 73 2.0 W 30 37 16 20 1012.3 1012.3 0.8
20/03:30pm 7.2 1.1 4.7 84 1.1 WNW 26 33 14 18 1012.4 1012.4 0.8
20/03:06pm 6.2 -3.3 3.9 85 1.0 W 43 61 23 33 1012.6 1012.6 0.6
20/03:00pm 6.5 -4.0 3.8 83 1.2 W 48 65 26 35 1012.6 1012.6 0.4
20/02:45pm 9.2 2.5 3.8 69 2.4 W 28 52 15 28 1012.4 1012.4 0.4
20/02:30pm 10.7 5.1 5.3 69 2.5 W 24 32 13 17 1011.9 1011.9 0.4
20/02:00pm 9.3 2.8 4.7 73 2.1 W 28 33 15 18 1012.0 1012.0 0.4
20/01:39pm 7.4 -0.5 4.4 81 1.3 WSW 35 54 19 29 1012.5 1012.5 0.4
20/01:33pm 7.5 -0.4 4.3 80 1.4 WSW 35 63 19 34 1012.6 1012.6 0.4
20/01:30pm 7.6 0.3 4.6 81 1.3 W 32 63 17 34 1012.7 1012.7 0.4
20/01:28pm 7.9 1.4 4.5 79 1.5 W 28 63 15 34 1012.8 1012.8 0.4
20/01:26pm 8.3 2.6 4.9 79 1.5 W 24 35 13 19 1012.7 1012.7 0.2
20/01:16pm 7.6 -0.2 5.1 84 1.1 W 35 54 19 29 1012.1 1012.1 0.2
20/01:12pm 7.7 -1.0 4.3 79 1.5 WSW 39 54 21 29 1012.7 1012.7 0.2
20/01:00pm 9.1 1.1 3.7 69 2.4 WSW 35 54 19 29 1012.5 1012.5 0.2
20/12:50pm 9.4 2.0 5.0 74 2.0 SW 33 52 18 28 1012.4 1012.4 0.2
20/12:30pm 9.7 2.9 7.1 84 1.2 SW 32 43 17 23 1012.2 1012.2 0.2
20/12:27pm 9.0 1.1 6.3 83 1.3 SW 37 56 20 30 1012.2 1012.2 0.2
20/12:16pm 9.4 1.7 3.4 66 2.6 WNW 33 57 18 31 1012.1 1012.1 0.2
20/12:14pm 12.3 5.0 2.7 52 4.2 WNW 30 48 16 26 1012.0 1012.0 0.0
20/12:00pm 13.7 6.8 4.8 55 4.2 W 30 43 16 23 1012.1 1012.1 0.0
20/11:30am 12.4 4.6 1.7 48 4.6 WSW 32 39 17 21 1012.1 1012.1 0.0
20/11:00am 11.6 2.8 3.6 58 3.6 W 39 57 21 31 1012.3 1012.3 0.0
20/10:58am 11.9 3.1 3.4 56 3.8 W 39 57 21 31 1012.3 1012.3 0.0
20/10:30am 13.0 4.8 2.6 49 4.6 W 35 52 19 28 1012.3 1012.3 0.0
20/10:22am 13.2 5.2 3.6 52 4.3 W 35 54 19 29 1012.3 1012.3 0.0
20/10:00am 12.8 4.0 3.7 54 4.1 W 39 54 21 29 1012.5 1012.5 0.0
20/09:30am 11.5 3.4 3.0 56 3.7 W 35 50 19 27 1012.5 1012.5 0.0
20/09:07am 11.8 3.5 4.1 59 3.5 W 37 56 20 30 1012.5 1012.5 0.0
20/09:00am 11.2 3.1 3.0 57 3.6 W 35 48 19 26 1012.4 1012.4 0.6
20/08:39am 10.8 2.7 3.4 60 3.3 W 35 54 19 29 1012.3 1012.3 0.6
20/08:30am 11.1 3.6 3.6 60 3.3 W 32 44 17 24 1012.4 1012.4 0.6
20/08:00am 9.8 3.2 4.0 67 2.6 W 28 43 15 23 1012.3 1012.3 0.6
20/07:30am 9.9 3.5 3.4 64 2.8 WNW 26 35 14 19 1012.0 1012.0 0.6
20/07:00am 8.9 4.9 4.7 75 1.9 NW 15 22 8 12 1011.9 1011.9 0.6
20/06:30am 8.8 2.2 4.4 74 1.9 WNW 28 39 15 21 1011.5 1011.5 0.6
20/06:00am 8.7 0.4 4.3 74 1.9 W 37 56 20 30 1011.6 1011.6 0.6
20/05:58am 8.9 0.6 4.3 73 2.0 W 37 56 20 30 1011.5 1011.5 0.6
20/05:30am 9.9 3.4 4.7 70 2.3 W 28 37 15 20 1011.0 1011.0 0.6
20/05:00am 10.4 5.5 5.2 70 2.4 W 20 30 11 16 1010.6 1010.6 0.6
20/04:30am 10.6 5.7 4.9 68 2.6 W 20 30 11 16 1010.4 1010.4 0.6
20/04:00am 10.9 5.7 5.7 70 2.4 WNW 22 33 12 18 1010.3 1010.3 0.6
20/03:30am 11.2 5.0 6.1 71 2.4 WNW 28 39 15 21 1010.1 1010.1 0.6
20/03:00am 10.8 4.7 6.7 76 1.9 WNW 28 39 15 21 1010.0 1010.0 0.6
20/02:39am 10.9 4.1 7.0 77 1.9 WNW 32 50 17 27 1010.5 1010.5 0.6
20/02:30am 11.1 5.7 8.0 81 1.5 WNW 26 43 14 23 1010.5 1010.5 0.6
20/02:00am 11.2 7.5 9.5 89 0.9 W 19 26 10 14 1010.6 1010.6 0.6
20/01:46am 11.2 8.3 9.8 91 0.7 W 15 22 8 12 1010.8 1010.8 0.6
20/01:30am 11.3 6.0 9.9 91 0.7 W 28 39 15 21 1011.3 1011.3 0.6
20/01:26am 11.5 6.6 9.8 89 0.9 W 26 37 14 20 1011.4 1011.4 0.2
20/01:00am 12.2 10.4 9.4 83 1.4 N 9 11 5 6 1011.3 1011.3 0.0
20/12:30am 12.5 10.2 9.1 80 1.7 NNE 11 11 6 6 1011.3 1011.3 0.0
20/12:00am 13.6 10.8 8.7 72 2.5 NW 13 17 7 9 1011.5 1011.5 0.0
 
Date/Time
EST
Temp
°C
App
Temp
°C
Dew
Point
°C
Rel
Hum
%
Delta-T
°C
Wind Press
QNH
hPa
Press
MSL
hPa
Rain since
9am
mm
Dir  Spd
km/h
Gust
km/h
Spd
kts
Gust
kts
19/11:30pm 13.3 10.2 8.8 74 2.3 NW 15 26 8 14 1011.5 1011.5 0.0
19/11:00pm 13.6 10.5 8.7 72 2.5 NNW 15 26 8 14 1011.7 1011.7 0.0
19/10:30pm 13.8 9.7 8.6 71 2.6 NNW 20 30 11 16 1011.6 1011.6 0.0
19/10:00pm 13.9 7.9 8.7 71 2.6 N 30 44 16 24 1011.7 1011.7 0.0
19/09:30pm 14.1 8.9 8.7 70 2.7 N 26 35 14 19 1012.0 1012.0 0.0
19/09:00pm 14.1 8.8 8.5 69 2.8 NNW 26 39 14 21 1012.3 1012.3 0.0
19/08:30pm 14.1 9.9 7.6 65 3.2 N 19 26 10 14 1012.5 1012.5 0.0
19/08:00pm 14.2 7.6 7.9 66 3.1 NNW 32 44 17 24 1012.3 1012.3 0.0
19/07:30pm 14.4 8.5 7.5 63 3.4 NNW 28 39 15 21 1012.4 1012.4 0.0
19/07:00pm 15.2 9.5 6.7 57 4.2 NNW 26 37 14 20 1013.0 1013.0 0.0
19/06:30pm 15.8 8.8 6.0 52 4.8 NNW 32 50 17 27 1012.8 1012.8 0.0
19/06:08pm 16.1 9.8 5.7 50 5.0 NNW 28 50 15 27 1012.7 1012.7 0.0
19/06:00pm 16.3 9.9 5.3 48 5.3 NW 28 41 15 22 1012.6 1012.6 0.0
19/05:30pm 16.6 9.8 5.3 47 5.4 NNW 30 48 16 26 1012.7 1012.7 0.0
19/05:00pm 17.1 10.7 5.1 45 5.8 NNW 28 46 15 25 1012.6 1012.6 0.0
19/04:35pm 17.6 10.6 5.9 46 5.7 NNW 32 59 17 32 1012.7 1012.7 0.0
19/04:30pm 17.1 10.8 5.7 47 5.6 NNW 28 41 15 22 1012.8 1012.8 0.0
19/04:08pm 16.9 9.6 5.5 47 5.5 N 33 54 18 29 1012.7 1012.7 0.0
19/04:00pm 17.4 10.4 6.0 47 5.6 NNW 32 54 17 29 1012.7 1012.7 0.0
19/03:31pm 16.9 8.9 5.5 47 5.5 NNW 37 56 20 30 1012.9 1012.9 0.0
19/03:30pm 17.1 8.7 5.7 47 5.6 NNW 39 56 21 30 1012.9 1012.9 0.0
19/03:06pm 16.9 8.2 5.8 48 5.4 N 41 59 22 32 1013.0 1013.0 0.0
19/03:00pm 16.4 7.6 5.7 49 5.2 N 41 57 22 31 1013.1 1013.1 0.0
19/02:30pm 16.9 9.3 5.8 48 5.4 N 35 54 19 29 1013.5 1013.5 0.0
19/02:00pm 17.0 9.9 6.2 49 5.3 N 33 52 18 28 1014.1 1014.2 0.0
19/01:56pm 16.7 9.4 5.6 48 5.4 N 33 52 18 28 1014.2 1014.3 0.0
19/01:30pm 15.3 8.2 5.5 52 4.7 N 32 44 17 24 1014.5 1014.6 0.0
19/01:11pm 14.6 7.5 6.2 57 4.1 N 33 52 18 28 1014.9 1015.0 0.0
19/01:00pm 14.7 7.5 6.0 56 4.2 N 33 48 18 26 1015.0 1015.1 0.0
19/12:35pm 14.9 7.8 6.2 56 4.2 NNW 33 52 18 28 1015.7 1015.8 0.0
19/12:30pm 14.5 6.8 5.3 54 4.4 NNW 35 50 19 27 1015.7 1015.8 0.0
19/12:07pm 14.1 6.7 4.9 54 4.3 NNW 33 52 18 28 1015.7 1015.8 0.0
19/12:00pm 13.9 5.7 5.0 55 4.2 N 37 54 20 29 1015.6 1015.7 0.0
19/11:40am 13.7 6.6 5.3 57 4.0 N 32 50 17 27 1015.7 1015.8 0.0
19/11:30am 13.5 6.4 5.4 58 3.8 NNW 32 48 17 26 1016.0 1016.1 0.0
19/11:00am 14.0 6.5 6.1 59 3.8 N 35 56 19 30 1016.3 1016.4 0.0
19/10:56am 13.9 6.1 6.5 61 3.6 N 37 56 20 30 1016.2 1016.3 0.0
19/10:30am 13.9 6.5 6.7 62 3.5 N 35 50 19 27 1016.4 1016.5 0.0
19/10:16am 12.8 4.9 6.4 65 3.1 N 37 56 20 30 1016.7 1016.8 0.0
19/10:00am 12.1 4.2 6.2 67 2.8 N 37 48 20 26 1016.8 1016.9 0.0
19/09:30am 11.7 6.9 5.8 67 2.8 N 20 35 11 19 1017.3 1017.4 0.0
19/09:00am 10.8 3.8 6.0 72 2.2 NNE 32 41 17 22 1017.0 1017.1 1.6
19/08:30am 9.7 2.1 5.7 76 1.8 N 35 46 19 25 1017.1 1017.2 1.6
19/08:00am 9.7 2.9 5.3 74 2.0 N 30 37 16 20 1017.6 1017.7 1.6
19/07:30am 9.3 2.5 5.1 75 1.9 N 30 39 16 21 1017.6 1017.7 1.6
19/07:06am 9.5 2.7 5.1 74 2.0 N 30 48 16 26 1017.8 1017.9 1.6
19/07:00am 9.4 3.0 5.0 74 2.0 N 28 41 15 22 1017.7 1017.8 1.6
19/06:30am 9.4 2.2 5.2 75 1.9 N 32 43 17 23 1017.5 1017.6 1.6

Other formats

Comma delimited format used in spreadsheet applications
http://www.bom.gov.au/fwo/IDV60801/IDV60801.94866.axf

JavaScript Object Notation format (JSON) in row-major order
http://www.bom.gov.au/fwo/IDV60801/IDV60801.94866.json

Data quality

Most of these data are generated automatically and are frequently updated. Quality checks on data are not normally performed. It is possible for incorrect values to appear. Refer to information at About Latest Weather Observations and please check the disclaimer before using these data.